Time;durP1;ratioP1;P1;durP2;ratioP2;P2;SDS_P1;SDS_P2;PMS_P1;PMS_P2;Temp;Humidity;BMP_temperature;BMP_pressure;BME280_temperature;BME280_humidity;BME280_pressure;Samples;Min_cycle;Max_cycle;Signal;HPM_P1;HPM_P2
2024/04/11 00:01:15;;;;;;;7.68;0.88;;;;;;;6.55;82.21;101237.50;5499333;26;19996;-66
2024/04/11 00:03:40;;;;;;;0.75;0.75;;;;;;;6.59;81.99;101238.41;5498964;26;20006;-65
2024/04/11 00:06:06;;;;;;;5.75;1.50;;;;;;;6.58;82.06;101242.72;5499618;26;19996;-66
2024/04/11 00:08:31;;;;;;;0.60;0.60;;;;;;;6.57;82.58;101240.94;5500356;26;20006;-66
2024/04/11 00:10:56;;;;;;;0.75;0.63;;;;;;;6.59;82.63;101240.97;5470712;26;20009;-66
2024/04/11 00:13:22;;;;;;;1.75;1.65;;;;;;;6.61;83.22;101236.75;5502649;26;20004;-67
2024/04/11 00:15:53;;;;;;;11.07;1.55;;;;;;;6.60;83.29;101232.44;5503007;26;20002;-66
2024/04/11 00:18:21;;;;;;;3.25;1.60;;;;;;;6.61;83.43;101232.47;5503086;26;19998;-66
2024/04/11 00:20:46;;;;;;;0.85;0.85;;;;;;;6.56;83.66;101234.06;5502366;26;20002;-66
2024/04/11 00:23:12;;;;;;;6.55;1.17;;;;;;;6.55;83.86;101227.16;5503084;26;20039;-66
2024/04/11 00:25:37;;;;;;;1.85;1.35;;;;;;;6.53;83.79;101229.69;5503173;26;20037;-67
2024/04/11 00:28:03;;;;;;;2.03;1.90;;;;;;;6.54;83.82;101238.31;5502599;26;19998;-66
2024/04/11 00:30:28;;;;;;;4.75;1.13;;;;;;;6.57;84.07;101230.63;5502930;26;20423;-66
2024/04/11 00:32:54;;;;;;;11.43;1.83;;;;;;;6.56;84.08;101228.91;5503005;26;20002;-65
2024/04/11 00:35:20;;;;;;;2.25;1.05;;;;;;;6.53;84.50;101231.41;5502946;26;20018;-66
2024/04/11 00:37:48;;;;;;;3.33;1.40;;;;;;;6.58;84.12;101219.50;5470716;26;20040;-66
2024/04/11 00:40:14;;;;;;;13.68;1.88;;;;;;;6.50;84.25;101218.44;5503407;26;20010;-66
2024/04/11 00:42:40;;;;;;;18.00;2.63;;;;;;;6.57;84.39;101207.41;5502425;26;19998;-66
2024/04/11 00:45:07;;;;;;;0.60;0.60;;;;;;;6.54;84.64;101205.66;5502623;26;19998;-66
2024/04/11 00:47:33;;;;;;;2.53;1.15;;;;;;;6.55;84.77;101197.06;5502845;26;19998;-65
2024/04/11 00:49:59;;;;;;;5.88;1.60;;;;;;;6.55;84.72;101196.22;5470357;26;20335;-67
2024/04/11 00:52:25;;;;;;;2.38;0.85;;;;;;;6.55;84.80;101198.78;5502485;26;19994;-65
2024/04/11 00:54:51;;;;;;;3.38;1.10;;;;;;;6.58;84.82;101196.28;5502603;26;20002;-66
2024/04/11 00:57:17;;;;;;;13.00;1.67;;;;;;;6.60;84.53;101198.88;5470538;26;20043;-65
2024/04/11 00:59:43;;;;;;;3.47;1.95;;;;;;;6.60;85.05;101188.56;5502769;26;20034;-66
2024/04/11 01:02:10;;;;;;;6.10;1.60;;;;;;;6.63;84.55;101181.72;5502597;26;20076;-66
2024/04/11 01:04:35;;;;;;;0.50;0.50;;;;;;;6.58;85.36;101170.47;5469951;26;20375;-66
2024/04/11 01:07:06;;;;;;;7.55;2.58;;;;;;;6.60;85.05;101163.59;5502451;26;20052;-66
2024/04/11 01:09:33;;;;;;;1.97;1.20;;;;;;;6.59;85.51;101151.56;5502537;26;20002;-65
2024/04/11 01:12:00;;;;;;;3.42;1.08;;;;;;;6.59;85.05;101154.13;5502454;26;20006;-66
2024/04/11 01:14:26;;;;;;;1.05;0.95;;;;;;;6.60;85.18;101130.06;5502623;26;19998;-66
2024/04/11 01:16:51;;;;;;;4.80;1.38;;;;;;;6.63;85.16;101135.28;5502341;26;20002;-66
2024/04/11 01:19:17;;;;;;;1.85;1.08;;;;;;;6.61;85.34;101120.63;5501568;26;20001;-66
2024/04/11 01:21:42;;;;;;;7.53;1.77;;;;;;;6.62;85.38;101117.19;5501975;26;20042;-65
2024/04/11 01:24:08;;;;;;;4.63;1.95;;;;;;;6.60;85.50;101111.16;5502269;26;20055;-66
2024/04/11 01:26:36;;;;;;;5.07;2.13;;;;;;;6.62;85.63;101118.06;5502053;26;19998;-66
2024/04/11 01:29:02;;;;;;;1.40;1.08;;;;;;;6.60;85.67;101122.31;5502033;26;20010;-65
2024/04/11 01:31:28;;;;;;;6.25;1.85;;;;;;;6.62;85.73;101119.78;5469893;26;20002;-66
2024/04/11 01:33:54;;;;;;;2.45;1.88;;;;;;;6.60;85.44;101111.16;5501658;26;20010;-65
2024/04/11 01:36:20;;;;;;;1.95;1.63;;;;;;;6.63;85.46;101109.47;5501930;26;20125;-66
2024/04/11 01:38:45;;;;;;;3.75;1.40;;;;;;;6.62;85.21;101107.75;5501985;26;19994;-65
2024/04/11 01:41:11;;;;;;;1.52;1.42;;;;;;;6.61;85.06;101098.28;5501941;26;20006;-65
2024/04/11 01:43:36;;;;;;;0.95;0.75;;;;;;;6.62;84.61;101109.47;5501975;26;20322;-66
2024/04/11 01:46:02;;;;;;;1.02;0.93;;;;;;;6.61;84.96;101098.28;5501857;26;19998;-65
2024/04/11 01:48:28;;;;;;;3.67;1.20;;;;;;;6.56;84.86;101105.06;5501709;26;19998;-65
2024/04/11 01:50:53;;;;;;;2.95;1.55;;;;;;;6.64;84.63;101097.47;5501752;26;19999;-66
2024/04/11 01:53:19;;;;;;;0.80;0.80;;;;;;;6.66;84.83;101095.78;5501799;26;20026;-65
2024/04/11 01:55:44;;;;;;;2.15;0.98;;;;;;;6.65;84.52;101084.59;5501790;26;20430;-65
2024/04/11 01:58:12;;;;;;;4.22;1.70;;;;;;;6.71;84.34;101082.97;5501700;26;20004;-66
2024/04/11 02:00:38;;;;;;;0.68;0.68;;;;;;;6.67;84.07;101082.91;5501694;26;20387;-65
2024/04/11 02:03:04;;;;;;;4.05;1.98;;;;;;;6.65;83.81;101078.56;5468669;26;20005;-65
2024/04/11 02:05:34;;;;;;;3.40;1.15;;;;;;;6.69;83.79;101064.88;5500770;26;19998;-66
2024/04/11 02:08:01;;;;;;;3.63;1.08;;;;;;;6.71;83.68;101078.66;5501583;26;20363;-65
2024/04/11 02:10:27;;;;;;;6.25;1.02;;;;;;;6.71;84.08;101057.16;5501352;26;20010;-66
2024/04/11 02:12:53;;;;;;;1.08;0.88;;;;;;;6.72;83.96;101058.91;5501267;26;20009;-66
2024/04/11 02:15:18;;;;;;;2.25;1.02;;;;;;;6.62;83.92;101053.56;5501673;26;19998;-66
2024/04/11 02:17:43;;;;;;;8.68;1.90;;;;;;;6.62;83.27;101043.25;5501186;26;20002;-65
2024/04/11 02:20:13;;;;;;;0.55;0.55;;;;;;;6.59;83.81;101034.56;5500992;26;20013;-65
2024/04/11 02:22:39;;;;;;;0.95;0.93;;;;;;;6.56;84.16;101027.66;5501151;26;20060;-64
2024/04/11 02:25:05;;;;;;;26.35;1.60;;;;;;;6.60;83.87;101026.00;5501370;26;19998;-64
2024/04/11 02:27:30;;;;;;;2.85;1.40;;;;;;;6.56;84.39;101033.72;5501325;26;20391;-65
2024/04/11 02:29:55;;;;;;;13.57;1.50;;;;;;;6.53;83.87;101019.88;5501252;26;20005;-65
2024/04/11 02:32:21;;;;;;;9.00;2.17;;;;;;;6.53;83.84;101017.28;5499895;26;20012;-65
2024/04/11 02:34:47;;;;;;;1.77;1.67;;;;;;;6.57;84.56;101014.78;5469116;26;20043;-65
2024/04/11 02:37:14;;;;;;;1.38;0.73;;;;;;;6.55;84.58;101013.03;5501284;26;19998;-65
2024/04/11 02:39:39;;;;;;;3.83;1.42;;;;;;;6.53;84.90;101010.41;5468958;26;20005;-64
2024/04/11 02:42:05;;;;;;;9.70;1.73;;;;;;;6.53;84.96;101002.66;5500949;26;19998;-65
2024/04/11 02:44:31;;;;;;;3.08;1.52;;;;;;;6.53;85.28;100999.22;5500519;26;19995;-65
2024/04/11 02:47:01;;;;;;;3.30;1.60;;;;;;;6.57;85.63;101001.91;5468671;26;20013;-66
2024/04/11 02:49:26;;;;;;;4.38;1.00;;;;;;;6.57;85.20;100986.41;5468756;26;20014;-66
2024/04/11 02:51:53;;;;;;;2.80;1.70;;;;;;;6.57;85.64;100976.09;5501264;26;20007;-65
2024/04/11 02:54:19;;;;;;;2.70;1.33;;;;;;;6.61;86.02;100976.16;5468765;26;19997;-65
2024/04/11 02:56:45;;;;;;;1.88;1.30;;;;;;;6.57;86.12;100965.78;5500740;26;20022;-65
2024/04/11 02:59:11;;;;;;;1.85;0.90;;;;;;;6.58;85.65;100969.22;5468563;26;20076;-66
2024/04/11 03:01:39;;;;;;;1.23;1.13;;;;;;;6.60;85.70;100957.19;5500601;26;20010;-66
2024/04/11 03:04:05;;;;;;;9.07;0.73;;;;;;;6.62;85.85;100957.22;5499962;26;19998;-67
2024/04/11 03:06:31;;;;;;;1.63;1.30;;;;;;;6.63;86.39;100953.81;5500831;26;20002;-66
2024/04/11 03:08:58;;;;;;;2.35;1.67;;;;;;;6.60;86.71;100949.47;5500802;26;20006;-66
2024/04/11 03:11:24;;;;;;;0.40;0.40;;;;;;;6.52;86.78;100944.19;5500674;26;20043;-68
2024/04/11 03:13:50;;;;;;;0.70;0.70;;;;;;;6.45;86.77;100935.47;5500392;26;20010;-67
2024/04/11 03:16:18;;;;;;;10.98;1.55;;;;;;;6.50;86.69;100942.44;5500599;26;20013;-67
2024/04/11 03:18:44;;;;;;;2.95;0.52;;;;;;;6.42;86.72;100932.81;5468179;26;20042;-67
2024/04/11 03:21:09;;;;;;;1.67;1.02;;;;;;;6.36;87.17;100932.72;5499991;26;19998;-68
2024/04/11 03:23:35;;;;;;;3.20;1.40;;;;;;;6.21;87.78;100923.03;5468277;26;19998;-68
2024/04/11 03:26:00;;;;;;;1.38;1.20;;;;;;;6.24;88.35;100917.03;5500460;26;20101;-67
2024/04/11 03:28:26;;;;;;;5.20;0.93;;;;;;;6.21;88.55;100917.88;5500162;26;19998;-67
2024/04/11 03:31:05;;;;;;;8.23;2.28;;;;;;;6.18;88.71;100913.50;5467878;26;20467;-67
2024/04/11 03:33:37;;;;;;;0.70;0.60;;;;;;;6.14;88.86;100900.53;5500083;26;20002;-65
2024/04/11 03:36:06;;;;;;;0.65;0.65;;;;;;;6.14;89.25;100900.53;5500407;26;19994;-65
2024/04/11 03:38:32;;;;;;;1.45;0.90;;;;;;;6.09;90.04;100892.72;5500047;26;20002;-66
2024/04/11 03:41:04;;;;;;;5.07;0.98;;;;;;;6.05;89.78;100886.63;5500110;26;20018;-65
2024/04/11 03:43:33;;;;;;;3.38;0.82;;;;;;;6.03;90.81;100887.41;5503105;26;20695;-64
2024/04/11 03:46:22;;;;;;;0.52;0.50;;;;;;;6.03;90.90;100884.84;5471432;26;20002;-65
2024/04/11 03:48:51;;;;;;;4.30;1.52;;;;;;;5.97;91.47;100883.03;5471462;26;20072;-65
2024/04/11 03:51:19;;;;;;;1.92;1.33;;;;;;;5.94;91.89;100877.81;5503939;26;20291;-65
2024/04/11 03:53:46;;;;;;;1.63;1.20;;;;;;;5.97;91.97;100858.97;5471380;26;19998;-65
2024/04/11 03:56:18;;;;;;;4.00;1.50;;;;;;;5.98;92.43;100858.09;5471590;26;20006;-64
2024/04/11 03:58:44;;;;;;;6.38;1.55;;;;;;;5.82;92.82;100863.00;5503455;26;19998;-62
2024/04/11 04:01:12;;;;;;;0.77;0.77;;;;;;;5.85;93.41;100860.47;5471209;26;20021;-63
2024/04/11 04:03:47;;;;;;;4.70;0.90;;;;;;;5.83;93.95;100854.44;5503453;26;20013;-63
2024/04/11 04:06:13;;;;;;;7.28;1.55;;;;;;;5.79;94.01;100857.78;5503770;26;20047;-62
2024/04/11 04:08:46;;;;;;;8.70;2.63;;;;;;;5.74;94.66;100849.09;5503673;26;20013;-62
2024/04/11 04:11:12;;;;;;;0.95;0.95;;;;;;;5.74;95.22;100843.94;5503552;26;19998;-62
2024/04/11 04:13:38;;;;;;;1.15;1.05;;;;;;;5.78;94.77;100851.75;5503647;26;20006;-62
2024/04/11 04:16:11;;;;;;;0.70;0.50;;;;;;;5.80;95.19;100847.50;5503887;26;20009;-62
2024/04/11 04:18:37;;;;;;;1.85;1.15;;;;;;;5.83;95.19;100837.25;5502975;26;19998;-61
2024/04/11 04:21:04;;;;;;;6.43;1.25;;;;;;;5.80;95.64;100837.19;5502891;26;19996;-63
2024/04/11 04:23:30;;;;;;;0.50;0.50;;;;;;;5.78;96.21;100835.44;5471246;26;20038;-63
2024/04/11 04:26:00;;;;;;;0.63;0.63;;;;;;;5.90;96.32;100820.19;5503355;26;19997;-64
2024/04/11 04:28:30;;;;;;;0.55;0.50;;;;;;;5.86;95.81;100807.22;5503097;26;20010;-63
2024/04/11 04:31:20;;;;;;;0.40;0.40;;;;;;;5.81;96.60;100799.44;5503356;26;20040;-64
2024/04/11 04:33:49;;;;;;;0.32;0.32;;;;;;;5.72;97.29;100797.53;5502783;26;19998;-63
2024/04/11 04:36:19;;;;;;;0.30;0.30;;;;;;;5.71;97.70;100795.81;5503307;26;20026;-64
2024/04/11 04:38:49;;;;;;;0.40;0.40;;;;;;;5.81;97.41;100783.97;5471068;26;20046;-64
2024/04/11 04:41:16;;;;;;;0.30;0.30;;;;;;;5.87;97.20;100786.66;5470274;26;20099;-64
2024/04/11 04:43:44;;;;;;;1.83;0.70;;;;;;;5.81;97.35;100768.50;5502978;26;20056;-64
2024/04/11 04:46:09;;;;;;;2.35;1.10;;;;;;;5.77;98.43;100771.84;5503123;26;20002;-65
2024/04/11 04:48:36;;;;;;;0.65;0.65;;;;;;;5.76;98.79;100749.50;5502937;26;20334;-64
2024/04/11 04:51:02;;;;;;;0.60;0.60;;;;;;;5.78;99.10;100758.16;5502866;26;20009;-64
2024/04/11 04:53:27;;;;;;;8.73;1.63;;;;;;;5.75;99.34;100756.38;5502303;26;20006;-64
2024/04/11 04:55:52;;;;;;;1.70;1.45;;;;;;;5.75;99.79;100751.22;5502732;26;19994;-65
2024/04/11 04:58:19;;;;;;;2.15;1.10;;;;;;;5.76;99.61;100734.94;5502868;26;20002;-65
2024/04/11 05:00:46;;;;;;;2.50;1.25;;;;;;;5.77;99.85;100731.50;5502878;26;20006;-64
2024/04/11 05:03:12;;;;;;;8.98;2.88;;;;;;;5.78;100.00;100732.38;5502205;26;20014;-64
2024/04/11 05:05:37;;;;;;;0.90;0.70;;;;;;;5.80;100.00;100735.84;5502251;26;20009;-64
2024/04/11 05:08:13;;;;;;;1.77;1.33;;;;;;;5.90;100.00;100723.97;5502824;26;19998;-65
2024/04/11 05:10:40;;;;;;;1.38;1.27;;;;;;;6.03;99.78;100725.91;5502622;26;20002;-65
2024/04/11 05:13:09;;;;;;;1.38;0.80;;;;;;;6.05;100.00;100721.66;5469886;26;20010;-65
2024/04/11 05:15:38;;;;;;;2.33;2.00;;;;;;;6.03;100.00;100722.47;5470364;26;20002;-64
2024/04/11 05:18:04;;;;;;;2.30;1.10;;;;;;;6.04;100.00;100701.91;5502572;26;20403;-65
2024/04/11 05:20:32;;;;;;;1.92;1.42;;;;;;;5.94;100.00;100703.41;5502142;26;19998;-64
2024/04/11 05:22:57;;;;;;;1.05;0.95;;;;;;;6.01;100.00;100711.25;5469816;26;20323;-65
2024/04/11 05:25:22;;;;;;;1.67;1.58;;;;;;;6.03;100.00;100704.41;5502633;26;20002;-64
2024/04/11 05:27:48;;;;;;;6.95;1.25;;;;;;;6.05;100.00;100702.78;5502711;26;20002;-65
2024/04/11 05:30:14;;;;;;;1.13;1.02;;;;;;;6.07;100.00;100691.63;5502763;26;20002;-65
2024/04/11 05:32:43;;;;;;;2.78;1.75;;;;;;;6.08;100.00;100682.19;5502293;26;20066;-64
2024/04/11 05:35:11;;;;;;;6.78;1.70;;;;;;;6.12;100.00;100681.38;5502309;26;20066;-64
2024/04/11 05:37:37;;;;;;;0.63;0.63;;;;;;;6.15;100.00;100670.28;5470208;26;20397;-64
2024/04/11 05:40:05;;;;;;;1.80;1.60;;;;;;;6.17;100.00;100668.56;5502521;26;20087;-64
2024/04/11 05:42:31;;;;;;;5.55;1.60;;;;;;;6.18;100.00;100665.16;5501957;26;20002;-64
2024/04/11 05:44:57;;;;;;;5.32;0.75;;;;;;;6.20;100.00;100684.06;5502211;26;20062;-65
2024/04/11 05:47:22;;;;;;;3.55;1.23;;;;;;;6.22;100.00;100650.56;5502202;26;20006;-64
2024/04/11 05:49:48;;;;;;;7.28;1.77;;;;;;;6.23;100.00;100644.59;5501618;26;20013;-64
2024/04/11 05:52:13;;;;;;;4.38;1.33;;;;;;;6.25;100.00;100673.81;5501963;26;20008;-64
2024/04/11 05:54:38;;;;;;;6.82;1.92;;;;;;;6.26;100.00;100666.09;5501584;26;19998;-64
2024/04/11 05:57:04;;;;;;;1.38;1.13;;;;;;;6.31;100.00;100661.88;5501783;26;19998;-64
2024/04/11 05:59:31;;;;;;;2.17;1.63;;;;;;;6.34;100.00;100661.06;5468695;26;20013;-64
2024/04/11 06:01:58;;;;;;;1.65;1.55;;;;;;;6.35;100.00;100637.00;5501777;26;20002;-64
2024/04/11 06:04:25;;;;;;;4.10;2.92;;;;;;;6.36;100.00;100631.00;5501355;26;20048;-63
2024/04/11 06:06:51;;;;;;;1.48;0.93;;;;;;;6.37;100.00;100629.28;5500094;26;20009;-63
2024/04/11 06:09:16;;;;;;;6.55;2.83;;;;;;;6.41;100.00;100633.63;5501438;26;19998;-63
2024/04/11 06:11:42;;;;;;;0.50;0.50;;;;;;;6.41;100.00;100637.09;5501430;26;20014;-64
2024/04/11 06:14:09;;;;;;;9.70;5.05;;;;;;;6.40;100.00;100632.78;5501540;26;19998;-64
2024/04/11 06:16:36;;;;;;;0.40;0.40;;;;;;;6.42;100.00;100635.38;5501938;26;20006;-63
2024/04/11 06:19:02;;;;;;;0.40;0.40;;;;;;;6.40;100.00;100612.16;5469206;26;19994;-63
2024/04/11 06:21:36;;;;;;;2.22;2.05;;;;;;;6.44;100.00;100633.66;5501375;26;20009;-64
2024/04/11 06:24:04;;;;;;;0.40;0.40;;;;;;;6.45;100.00;100625.09;5501947;26;20005;-64
2024/04/11 06:26:30;;;;;;;0.40;0.40;;;;;;;6.47;100.00;100622.53;5501925;26;19998;-62
2024/04/11 06:28:56;;;;;;;0.95;0.95;;;;;;;6.50;100.00;100618.25;5501798;26;20075;-63
2024/04/11 06:31:28;;;;;;;1.02;1.02;;;;;;;6.48;100.00;100601.03;5501695;26;20006;-63
2024/04/11 06:33:54;;;;;;;0.32;0.32;;;;;;;6.52;100.00;100600.22;5501357;26;20451;-62
2024/04/11 06:36:20;;;;;;;0.40;0.40;;;;;;;6.51;100.00;100601.06;5501851;26;19998;-63
2024/04/11 06:38:46;;;;;;;0.30;0.30;;;;;;;6.56;100.00;100596.84;5469504;26;19994;-63
2024/04/11 06:41:18;;;;;;;0.50;0.50;;;;;;;6.59;100.00;100603.75;5501560;26;20002;-63
2024/04/11 06:43:47;;;;;;;0.40;0.40;;;;;;;6.62;100.00;100596.91;5501619;26;20299;-64
2024/04/11 06:46:13;;;;;;;0.30;0.30;;;;;;;6.63;100.00;100588.31;5501650;26;20006;-64
2024/04/11 06:48:41;;;;;;;0.40;0.40;;;;;;;6.66;100.00;100597.81;5467479;26;19999;-64
2024/04/11 06:51:09;;;;;;;0.40;0.40;;;;;;;6.65;100.00;100583.16;5501240;26;20014;-63
2024/04/11 06:53:36;;;;;;;0.30;0.30;;;;;;;6.72;100.00;100591.84;5501283;26;20013;-64
2024/04/11 06:56:07;;;;;;;0.40;0.40;;;;;;;6.72;100.00;100577.25;5501212;26;20006;-64
2024/04/11 06:58:36;;;;;;;0.45;0.45;;;;;;;6.76;100.00;100591.00;5501297;26;20030;-64
2024/04/11 07:01:03;;;;;;;0.40;0.40;;;;;;;6.76;100.00;100578.13;5500909;26;20009;-63
2024/04/11 07:03:30;;;;;;;0.30;0.30;;;;;;;6.76;100.00;100585.84;5500856;26;20013;-63
2024/04/11 07:06:01;;;;;;;0.30;0.30;;;;;;;6.76;100.00;100558.34;5501268;26;20002;-64
2024/04/11 07:08:31;;;;;;;0.40;0.40;;;;;;;6.78;100.00;100573.84;5500791;26;20006;-64
2024/04/11 07:11:23;;;;;;;0.30;0.30;;;;;;;6.79;100.00;100562.66;5501182;26;20315;-64
2024/04/11 07:13:50;;;;;;;0.40;0.40;;;;;;;6.82;100.00;100584.22;5500899;26;19999;-63
2024/04/11 07:16:20;;;;;;;0.40;0.40;;;;;;;6.85;100.00;100572.19;5500961;26;20002;-64
2024/04/11 07:18:49;;;;;;;0.40;0.40;;;;;;;6.88;100.00;100578.25;5500322;26;20047;-64
2024/04/11 07:21:17;;;;;;;0.30;0.30;;;;;;;6.93;100.00;100575.72;5468068;26;20013;-64
2024/04/11 07:23:53;;;;;;;0.40;0.40;;;;;;;6.97;100.00;100574.00;5468689;26;20015;-63
2024/04/11 07:26:22;;;;;;;0.30;0.30;;;;;;;7.01;100.00;100580.94;5500909;26;19999;-63
2024/04/11 07:28:48;;;;;;;0.30;0.30;;;;;;;7.04;100.00;100573.25;5468452;26;20002;-63
2024/04/11 07:31:14;;;;;;;0.40;0.40;;;;;;;7.03;100.00;100559.44;5500749;26;20051;-63
2024/04/11 07:33:40;;;;;;;0.40;0.40;;;;;;;7.10;100.00;100550.06;5500706;26;20016;-63
2024/04/11 07:36:13;;;;;;;0.30;0.30;;;;;;;7.14;100.00;100567.28;5468615;26;20003;-63
2024/04/11 07:38:40;;;;;;;0.30;0.30;;;;;;;7.19;100.00;100546.66;5500797;26;19998;-62
2024/04/11 07:41:18;;;;;;;0.30;0.30;;;;;;;7.25;100.00;100561.34;5500524;26;19994;-63
2024/04/11 07:43:51;;;;;;;0.30;0.30;;;;;;;7.24;100.00;100563.06;5500568;26;20002;-63
2024/04/11 07:46:17;;;;;;;0.40;0.40;;;;;;;7.29;100.00;100561.38;5468516;26;19998;-63
2024/04/11 07:48:51;;;;;;;0.40;0.40;;;;;;;7.28;100.00;100563.97;5500636;26;19998;-62
2024/04/11 07:51:21;;;;;;;0.30;0.30;;;;;;;7.29;100.00;100576.00;5500718;26;20074;-63
2024/04/11 07:53:47;;;;;;;0.30;0.30;;;;;;;7.30;100.00;100577.75;5500405;26;20005;-62
2024/04/11 07:56:19;;;;;;;1.20;1.10;;;;;;;7.30;100.00;100575.19;5500491;26;20055;-63
2024/04/11 07:58:55;;;;;;;1.25;1.25;;;;;;;7.33;100.00;100577.78;5500564;26;20431;-63
2024/04/11 08:01:30;;;;;;;0.30;0.30;;;;;;;7.35;100.00;100576.06;5500246;26;20009;-62
2024/04/11 08:03:56;;;;;;;0.30;0.30;;;;;;;7.41;100.00;100580.44;5468122;26;20005;-62
2024/04/11 08:06:21;;;;;;;0.30;0.30;;;;;;;7.39;100.00;100574.38;5500109;26;19998;-63
2024/04/11 08:08:48;;;;;;;0.40;0.40;;;;;;;7.38;100.00;100565.75;5500123;26;19998;-63
2024/04/11 08:11:15;;;;;;;0.68;0.68;;;;;;;7.39;100.00;100571.78;5499923;26;19994;-62
2024/04/11 08:13:43;;;;;;;0.40;0.40;;;;;;;7.40;100.00;100574.38;5400649;21;20031;-66
2024/04/11 08:16:10;;;;;;;0.30;0.30;;;;;;;7.39;100.00;100583.00;5391892;26;20004;-67
2024/04/11 08:18:35;;;;;;;0.30;0.30;;;;;;;7.37;100.00;100571.78;5391993;26;20000;-65
2024/04/11 08:21:07;;;;;;;0.68;0.68;;;;;;;7.44;100.00;100575.28;5389820;26;20070;-66
2024/04/11 08:23:36;;;;;;;0.30;0.30;;;;;;;7.46;100.00;100573.56;5391952;26;20000;-66
2024/04/11 08:26:01;;;;;;;0.98;0.98;;;;;;;7.49;100.00;100568.41;5391704;26;20078;-66
2024/04/11 08:28:27;;;;;;;0.32;0.32;;;;;;;7.53;100.00;100564.13;5391728;26;20001;-66
2024/04/11 08:30:53;;;;;;;0.40;0.40;;;;;;;7.60;100.00;100571.09;5395362;26;20000;-66
2024/04/11 08:33:20;;;;;;;0.40;0.40;;;;;;;7.59;100.00;100574.50;5395285;26;20081;-66
2024/04/11 08:35:47;;;;;;;0.40;0.40;;;;;;;7.65;100.00;100551.28;5393528;26;19996;-66
2024/04/11 08:38:15;;;;;;;0.95;0.95;;;;;;;7.69;100.00;100586.66;5395455;26;20011;-66
2024/04/11 08:40:44;;;;;;;0.30;0.30;;;;;;;7.75;100.00;100584.94;5393615;26;20043;-66
2024/04/11 08:43:15;;;;;;;0.50;0.50;;;;;;;7.73;100.00;100589.25;5395237;26;20040;-67
2024/04/11 08:45:44;;;;;;;0.30;0.30;;;;;;;7.79;100.00;100589.28;5395101;26;20000;-67
2024/04/11 08:48:10;;;;;;;0.40;0.40;;;;;;;7.80;100.00;100588.41;5394974;26;20032;-67
2024/04/11 08:50:41;;;;;;;1.05;1.05;;;;;;;7.75;100.00;100567.72;5394878;26;20008;-66
2024/04/11 08:53:09;;;;;;;0.30;0.30;;;;;;;7.83;100.00;100609.13;5393358;26;20000;-66
2024/04/11 08:55:35;;;;;;;0.50;0.50;;;;;;;7.84;100.00;100573.81;5395089;26;20432;-68
2024/04/11 08:58:01;;;;;;;0.30;0.30;;;;;;;7.88;100.00;100614.31;5395071;26;20011;-67
2024/04/11 09:00:29;;;;;;;0.40;0.40;;;;;;;7.90;100.00;100616.06;5394942;26;19996;-66
2024/04/11 09:02:58;;;;;;;0.30;0.30;;;;;;;7.88;100.00;100612.59;5394540;26;20040;-67
2024/04/11 09:05:24;;;;;;;0.35;0.35;;;;;;;7.93;100.00;100630.72;5392941;26;20284;-67
2024/04/11 09:07:51;;;;;;;0.38;0.38;;;;;;;7.95;100.00;100629.03;5394929;26;20024;-68
2024/04/11 09:10:19;;;;;;;0.30;0.30;;;;;;;8.02;100.00;100624.75;5394915;26;20007;-66
2024/04/11 09:12:48;;;;;;;0.30;0.30;;;;;;;8.05;100.00;100619.59;5393018;26;20168;-66
2024/04/11 09:15:18;;;;;;;0.30;0.30;;;;;;;8.09;100.00;100626.50;5395005;26;20004;-66
2024/04/11 09:17:44;;;;;;;0.30;0.30;;;;;;;8.17;100.00;100618.78;5394794;26;20060;-68
2024/04/11 09:20:15;;;;;;;0.30;0.30;;;;;;;8.21;100.00;100628.28;5394453;26;20000;-65
2024/04/11 09:22:56;;;;;;;0.40;0.40;;;;;;;8.34;100.00;100642.13;5394869;26;20004;-65
2024/04/11 09:25:29;;;;;;;0.40;0.40;;;;;;;8.37;100.00;100634.38;5393027;26;20011;-67
2024/04/11 09:27:59;;;;;;;0.30;0.30;;;;;;;8.45;100.00;100637.00;5394857;26;20055;-66
2024/04/11 09:30:34;;;;;;;0.30;0.30;;;;;;;8.51;100.00;100636.19;5394732;26;20016;-65
2024/04/11 09:33:09;;;;;;;0.30;0.30;;;;;;;8.57;100.00;100643.13;5394576;26;20416;-67
2024/04/11 09:35:40;;;;;;;0.30;0.30;;;;;;;8.59;100.00;100647.47;5392753;26;20011;-66
2024/04/11 09:38:08;;;;;;;0.30;0.30;;;;;;;8.61;100.00;100660.41;5394555;26;20040;-66
2024/04/11 09:40:34;;;;;;;0.30;0.30;;;;;;;8.64;100.00;100665.59;5394436;26;20321;-66
2024/04/11 09:43:04;;;;;;;0.40;0.40;;;;;;;8.63;100.00;100663.84;5392506;26;20530;-65
2024/04/11 09:45:35;;;;;;;0.30;0.30;;;;;;;8.69;100.00;100669.03;5394781;26;20012;-67
2024/04/11 09:48:03;;;;;;;0.30;0.30;;;;;;;8.70;100.00;100662.16;5394434;26;20015;-68
2024/04/11 09:50:30;;;;;;;0.30;0.30;;;;;;;8.72;100.00;100660.44;5394199;26;20059;-68
2024/04/11 09:52:59;;;;;;;0.30;0.30;;;;;;;8.66;100.00;100633.69;5394475;26;20069;-67
2024/04/11 09:55:33;;;;;;;0.30;0.30;;;;;;;8.75;100.00;100670.81;5394516;26;20030;-66
2024/04/11 09:58:00;;;;;;;0.30;0.30;;;;;;;8.72;100.00;100657.84;5394180;26;19996;-66
2024/04/11 10:03:22;;;;;;;0.30;0.30;;;;;;;8.75;100.00;100663.91;5394027;26;20014;-68
2024/04/11 10:05:50;;;;;;;0.30;0.30;;;;;;;8.75;100.00;100661.31;5393901;26;20019;-67
2024/04/11 10:08:36;;;;;;;0.57;0.57;;;;;;;8.78;100.00;100676.00;5392507;26;20037;-68
2024/04/11 10:11:03;;;;;;;0.30;0.30;;;;;;;8.78;100.00;100673.41;5394251;26;20059;-68
2024/04/11 10:13:38;;;;;;;0.30;0.30;;;;;;;8.74;100.00;100682.88;5393930;26;20004;-67
2024/04/11 10:16:30;;;;;;;0.30;0.30;;;;;;;8.78;100.00;100704.47;5394094;26;20011;-68
2024/04/11 10:19:04;;;;;;;0.30;0.30;;;;;;;8.83;100.00;100702.78;5394097;26;20005;-67
2024/04/11 10:21:32;;;;;;;0.40;0.40;;;;;;;8.82;100.00;100716.56;5392089;26;20023;-67
2024/04/11 10:23:58;;;;;;;0.30;0.30;;;;;;;8.80;100.00;100713.97;5393808;26;20058;-69
2024/04/11 10:26:33;;;;;;;0.40;0.40;;;;;;;8.82;100.00;100710.53;5392193;26;20015;-67
2024/04/11 10:29:14;;;;;;;0.30;0.30;;;;;;;8.83;100.00;100713.13;5393816;26;20057;-67
2024/04/11 10:31:44;;;;;;;0.40;0.40;;;;;;;8.86;100.00;100713.16;5394059;26;20014;-68
2024/04/11 10:34:13;;;;;;;0.30;0.30;;;;;;;8.85;100.00;100702.78;5393391;26;20000;-66
2024/04/11 10:36:42;;;;;;;0.40;0.40;;;;;;;8.85;100.00;100701.03;5391837;26;20396;-66
2024/04/11 10:39:09;;;;;;;0.40;0.40;;;;;;;8.90;100.00;100714.00;5393657;26;20012;-67
2024/04/11 10:41:37;;;;;;;0.30;0.30;;;;;;;8.89;100.00;100717.44;5393765;26;20000;-66
2024/04/11 10:44:05;;;;;;;0.40;0.40;;;;;;;8.88;100.00;100724.34;5391767;26;20412;-67
2024/04/11 10:46:31;;;;;;;0.30;0.30;;;;;;;8.84;100.00;100729.50;5393597;26;20023;-67
2024/04/11 10:49:12;;;;;;;0.30;0.30;;;;;;;8.85;100.00;100745.03;5391918;26;20000;-67
2024/04/11 10:51:41;;;;;;;0.30;0.30;;;;;;;8.85;100.00;100747.63;5392700;26;19997;-66
2024/04/11 10:54:09;;;;;;;0.30;0.30;;;;;;;8.87;100.00;100740.75;5393270;26;20000;-67
2024/04/11 10:56:43;;;;;;;0.40;0.40;;;;;;;8.88;100.00;100747.66;5393661;26;20046;-67
2024/04/11 10:59:18;;;;;;;0.30;0.30;;;;;;;8.91;100.00;100760.59;5393357;26;20047;-67
2024/04/11 11:01:57;;;;;;;0.30;0.30;;;;;;;8.89;100.00;100749.41;5400746;21;20085;-68
2024/04/11 11:04:25;;;;;;;0.30;0.30;;;;;;;8.88;100.00;100757.16;5431435;21;20007;-68
2024/04/11 11:06:54;;;;;;;0.40;0.40;;;;;;;8.90;100.00;100751.13;5415197;21;20062;-63
2024/04/11 11:09:22;;;;;;;0.30;0.30;;;;;;;8.95;100.00;100763.22;5393067;26;20441;-62
2024/04/11 11:11:49;;;;;;;0.30;0.30;;;;;;;8.94;100.00;100767.53;5393058;26;20015;-62
2024/04/11 11:14:20;;;;;;;0.30;0.30;;;;;;;8.99;100.00;100764.97;5392647;26;20047;-63
2024/04/11 11:16:47;;;;;;;0.38;0.38;;;;;;;9.00;100.00;100777.03;5393341;26;20020;-63
2024/04/11 11:19:12;;;;;;;0.30;0.30;;;;;;;8.99;100.00;100765.84;5393008;26;20001;-63
2024/04/11 11:21:42;;;;;;;0.40;0.40;;;;;;;9.02;100.00;100771.03;5392859;26;20043;-63
2024/04/11 11:24:13;;;;;;;0.30;0.30;;;;;;;9.04;100.00;100776.22;5392866;26;20509;-62
2024/04/11 11:26:43;;;;;;;0.40;0.40;;;;;;;9.02;100.00;100776.22;5393155;26;20000;-62
2024/04/11 11:29:10;;;;;;;0.30;0.30;;;;;;;9.03;100.00;100777.06;5392219;26;20015;-62
2024/04/11 11:31:37;;;;;;;0.30;0.30;;;;;;;9.03;100.00;100790.88;5430953;21;20512;-62
2024/04/11 11:34:12;;;;;;;0.30;0.30;;;;;;;9.03;100.00;100790.00;5419954;21;20458;-66
2024/04/11 11:36:47;;;;;;;0.30;0.30;;;;;;;9.02;100.00;100786.56;5395796;26;20000;-67